Time;durP1;ratioP1;P1;durP2;ratioP2;P2;SDS_P1;SDS_P2;PMS_P1;PMS_P2;Temp;Humidity;BMP_temperature;BMP_pressure;BME280_temperature;BME280_humidity;BME280_pressure;Samples;Min_cycle;Max_cycle;Signal;HPM_P1;HPM_P2
2021/05/10 00:01:09;;;;;;;4.37;1.40;;;;;;;;;;5059043;28;20737;-74
2021/05/10 00:03:36;;;;;;;5.37;1.37;;;;;;;;;;5063485;28;20294;-74
2021/05/10 00:06:03;;;;;;;10.17;2.10;;;;;;;;;;5071516;28;20679;-74
2021/05/10 00:08:30;;;;;;;5.63;1.30;;;;;;;;;;5077787;28;20255;-74
2021/05/10 00:10:56;;;;;;;6.43;2.17;;;;;;;;;;5055525;28;20296;-74
2021/05/10 00:13:24;;;;;;;5.90;1.43;;;;;;;;;;5082887;28;20206;-74
2021/05/10 00:15:51;;;;;;;5.97;1.30;;;;;;;;;;5052724;28;20289;-74
2021/05/10 00:18:18;;;;;;;8.73;2.03;;;;;;;;;;5065461;28;20288;-73
2021/05/10 00:20:46;;;;;;;7.37;1.60;;;;;;;;;;5091851;28;20618;-74
2021/05/10 00:23:13;;;;;;;7.40;1.53;;;;;;;;;;5070351;28;20212;-74
2021/05/10 00:25:41;;;;;;;6.47;1.90;;;;;;;;;;5071544;28;20787;-73
2021/05/10 00:28:07;;;;;;;8.83;1.60;;;;;;;;;;5070841;28;20781;-74
2021/05/10 00:30:34;;;;;;;6.90;1.87;;;;;;;;;;5070770;28;20230;-73
2021/05/10 00:33:01;;;;;;;7.97;1.73;;;;;;;;;;5076404;28;20240;-74
2021/05/10 00:35:28;;;;;;;9.20;1.87;;;;;;;;;;5092409;28;20289;-74
2021/05/10 00:37:56;;;;;;;6.83;1.60;;;;;;;;;;5067082;28;20199;-73
2021/05/10 00:40:23;;;;;;;6.40;1.57;;;;;;;;;;5080728;28;20283;-73
2021/05/10 00:42:50;;;;;;;6.73;1.73;;;;;;;;;;5092010;28;20281;-73
2021/05/10 00:45:18;;;;;;;6.90;1.63;;;;;;;;;;5069564;28;20216;-73
2021/05/10 00:47:45;;;;;;;7.30;1.67;;;;;;;;;;5051909;28;20264;-73
2021/05/10 00:50:12;;;;;;;11.23;1.80;;;;;;;;;;5052218;28;20206;-74
2021/05/10 00:52:38;;;;;;;7.27;1.40;;;;;;;;;;5051973;28;20295;-74
2021/05/10 00:55:07;;;;;;;7.53;1.70;;;;;;;;;;5051830;28;20252;-73
2021/05/10 00:57:37;;;;;;;9.43;1.93;;;;;;;;;;5052167;28;20216;-74
2021/05/10 01:00:04;;;;;;;10.20;2.03;;;;;;;;;;5051485;28;20272;-73
2021/05/10 01:02:31;;;;;;;7.53;1.73;;;;;;;;;;5055964;28;20236;-74
2021/05/10 01:04:58;;;;;;;8.27;2.00;;;;;;;;;;5071563;28;20238;-73
2021/05/10 01:07:25;;;;;;;7.43;1.67;;;;;;;;;;5067969;28;20306;-73
2021/05/10 01:09:51;;;;;;;13.97;2.03;;;;;;;;;;5063730;28;20676;-74
2021/05/10 01:12:19;;;;;;;8.50;1.73;;;;;;;;;;5076099;28;20317;-74
2021/05/10 01:14:46;;;;;;;8.47;1.73;;;;;;;;;;5052989;28;20293;-74
2021/05/10 01:17:12;;;;;;;9.60;2.13;;;;;;;;;;5075529;28;20378;-73
2021/05/10 01:19:39;;;;;;;10.73;1.90;;;;;;;;;;5074218;28;20742;-74
2021/05/10 01:22:06;;;;;;;7.63;2.43;;;;;;;;;;5071916;28;20612;-73
2021/05/10 01:24:34;;;;;;;9.30;1.90;;;;;;;;;;5072524;28;20261;-73
2021/05/10 01:27:01;;;;;;;12.80;2.17;;;;;;;;;;5053079;28;20261;-73
2021/05/10 01:29:28;;;;;;;8.80;1.70;;;;;;;;;;5054651;28;20287;-73
2021/05/10 01:31:54;;;;;;;9.20;2.33;;;;;;;;;;5068786;28;20562;-74
2021/05/10 01:34:21;;;;;;;11.53;2.20;;;;;;;;;;5080941;28;20199;-73
2021/05/10 01:36:48;;;;;;;9.03;1.83;;;;;;;;;;5080310;28;20239;-73
2021/05/10 01:39:14;;;;;;;11.63;2.23;;;;;;;;;;5069977;28;20288;-73
2021/05/10 01:41:42;;;;;;;14.90;2.77;;;;;;;;;;5058787;28;20282;-74
2021/05/10 01:44:09;;;;;;;6.10;2.00;;;;;;;;;;5055261;28;20290;-73
2021/05/10 01:46:36;;;;;;;9.90;2.10;;;;;;;;;;5055577;28;20286;-73
2021/05/10 01:49:03;;;;;;;11.50;2.43;;;;;;;;;;5054697;28;20226;-73
2021/05/10 01:51:29;;;;;;;9.03;2.00;;;;;;;;;;5069028;28;20242;-73
2021/05/10 01:53:56;;;;;;;11.07;2.73;;;;;;;;;;5089865;28;20280;-74
2021/05/10 01:56:23;;;;;;;11.27;2.33;;;;;;;;;;5074611;28;20203;-73
2021/05/10 01:58:54;;;;;;;14.23;2.63;;;;;;;;;;5075367;28;20198;-73
2021/05/10 02:01:21;;;;;;;11.97;2.43;;;;;;;;;;5065418;28;20231;-73
2021/05/10 02:03:48;;;;;;;12.03;2.33;;;;;;;;;;5065988;28;20702;-73
2021/05/10 02:06:15;;;;;;;10.90;2.30;;;;;;;;;;5057420;28;20581;-73
2021/05/10 02:08:44;;;;;;;12.57;2.33;;;;;;;;;;5073874;28;20270;-73
2021/05/10 02:11:11;;;;;;;14.57;2.47;;;;;;;;;;5070539;28;20207;-74
2021/05/10 02:13:37;;;;;;;11.83;2.73;;;;;;;;;;5089701;28;20215;-73
2021/05/10 02:16:05;;;;;;;11.73;2.60;;;;;;;;;;5080010;28;20643;-74
2021/05/10 02:18:33;;;;;;;13.43;2.67;;;;;;;;;;5061973;28;20204;-74
2021/05/10 02:20:59;;;;;;;15.27;2.73;;;;;;;;;;5059517;28;20227;-73
2021/05/10 02:23:27;;;;;;;15.70;2.50;;;;;;;;;;5074156;28;20286;-73
2021/05/10 02:25:54;;;;;;;16.20;2.70;;;;;;;;;;5074697;28;20254;-73
2021/05/10 02:28:23;;;;;;;14.00;2.73;;;;;;;;;;5063034;28;20220;-73
2021/05/10 02:30:50;;;;;;;11.87;2.90;;;;;;;;;;5065253;28;20202;-74
2021/05/10 02:33:20;;;;;;;11.07;2.50;;;;;;;;;;5070371;28;20222;-74
2021/05/10 02:35:47;;;;;;;12.03;2.30;;;;;;;;;;5078224;28;20196;-74
2021/05/10 02:38:14;;;;;;;11.93;2.43;;;;;;;;;;5081103;28;20573;-73
2021/05/10 02:40:41;;;;;;;10.30;2.33;;;;;;;;;;5071493;28;20204;-73
2021/05/10 02:43:08;;;;;;;13.97;2.43;;;;;;;;;;5070109;28;20288;-73
2021/05/10 02:45:35;;;;;;;13.37;2.33;;;;;;;;;;5073709;28;20227;-74
2021/05/10 02:48:01;;;;;;;12.13;2.07;;;;;;;;;;5054254;28;20231;-74
2021/05/10 02:50:29;;;;;;;8.77;2.10;;;;;;;;;;5053627;28;20242;-73
2021/05/10 02:52:56;;;;;;;10.50;2.13;;;;;;;;;;5089405;28;20281;-74
2021/05/10 02:55:23;;;;;;;11.50;2.37;;;;;;;;;;5075597;28;20705;-74
2021/05/10 02:57:50;;;;;;;13.43;2.60;;;;;;;;;;5053957;28;20196;-74
2021/05/10 03:00:18;;;;;;;12.07;2.10;;;;;;;;;;5054086;28;20235;-74
2021/05/10 03:02:45;;;;;;;9.77;2.37;;;;;;;;;;5072106;28;20589;-74
2021/05/10 03:05:12;;;;;;;13.90;2.27;;;;;;;;;;5066354;28;20260;-74
2021/05/10 03:07:40;;;;;;;13.73;2.83;;;;;;;;;;5085851;28;20218;-74
2021/05/10 03:10:08;;;;;;;9.03;2.00;;;;;;;;;;5076334;28;20235;-74
2021/05/10 03:12:35;;;;;;;15.03;2.60;;;;;;;;;;5073450;28;20293;-74
2021/05/10 03:15:02;;;;;;;13.90;2.10;;;;;;;;;;5061028;28;20209;-74
2021/05/10 03:17:28;;;;;;;11.53;1.90;;;;;;;;;;5054299;28;20356;-74
2021/05/10 03:19:55;;;;;;;12.83;2.67;;;;;;;;;;5093623;28;20293;-74
2021/05/10 03:22:22;;;;;;;15.30;2.40;;;;;;;;;;5082374;28;20285;-74
2021/05/10 03:24:49;;;;;;;17.07;2.90;;;;;;;;;;5069863;28;20207;-74
2021/05/10 03:27:16;;;;;;;20.00;3.20;;;;;;;;;;5066561;28;20309;-74
2021/05/10 03:29:43;;;;;;;17.00;3.23;;;;;;;;;;5073274;28;20692;-74
2021/05/10 03:32:10;;;;;;;15.90;2.93;;;;;;;;;;5068135;28;20272;-74
2021/05/10 03:34:36;;;;;;;14.17;3.10;;;;;;;;;;5053307;28;20219;-74
2021/05/10 03:37:03;;;;;;;15.80;2.40;;;;;;;;;;5058739;28;20202;-74
2021/05/10 03:39:30;;;;;;;14.07;2.90;;;;;;;;;;5068602;28;20279;-74
2021/05/10 03:41:58;;;;;;;17.43;3.50;;;;;;;;;;5060123;28;20290;-73
2021/05/10 03:44:24;;;;;;;14.20;2.40;;;;;;;;;;5075598;28;20574;-74
2021/05/10 03:46:51;;;;;;;17.00;2.60;;;;;;;;;;5076585;28;20291;-74
2021/05/10 03:49:18;;;;;;;13.90;2.70;;;;;;;;;;5072921;28;20292;-73
2021/05/10 03:51:44;;;;;;;13.87;2.23;;;;;;;;;;5073061;28;20565;-74
2021/05/10 03:54:11;;;;;;;11.90;3.07;;;;;;;;;;5073434;28;20595;-74
2021/05/10 03:56:38;;;;;;;19.77;2.57;;;;;;;;;;5073209;28;20206;-74
2021/05/10 03:59:05;;;;;;;13.23;3.07;;;;;;;;;;5078840;28;20222;-74
2021/05/10 04:01:32;;;;;;;11.73;2.50;;;;;;;;;;5079712;28;20317;-74
2021/05/10 04:04:06;;;;;;;18.73;2.53;;;;;;;;;;5071706;28;20199;-74
2021/05/10 04:06:45;;;;;;;16.17;2.70;;;;;;;;;;5071327;28;20210;-73
2021/05/10 04:14:45;;;;;;;18.23;2.63;;;;;;;;;;5072940;28;20194;-73
2021/05/10 04:17:11;;;;;;;17.60;2.97;;;;;;;;;;5072242;28;20227;-73
2021/05/10 04:19:38;;;;;;;14.33;2.57;;;;;;;;;;5055079;28;20311;-73
2021/05/10 04:22:05;;;;;;;22.50;2.80;;;;;;;;;;5057819;28;20340;-74
2021/05/10 04:24:31;;;;;;;19.13;2.77;;;;;;;;;;5078917;28;20203;-74
2021/05/10 04:26:59;;;;;;;16.10;2.30;;;;;;;;;;5076878;28;20602;-73
2021/05/10 04:29:25;;;;;;;20.10;2.40;;;;;;;;;;5076733;28;20325;-74
2021/05/10 04:31:53;;;;;;;11.87;2.33;;;;;;;;;;5063594;28;20222;-74
2021/05/10 04:34:19;;;;;;;14.07;2.50;;;;;;;;;;5070495;28;20231;-74
2021/05/10 04:36:46;;;;;;;15.80;2.50;;;;;;;;;;5072131;28;20239;-73
2021/05/10 04:39:13;;;;;;;14.07;2.70;;;;;;;;;;5071932;28;20218;-74
2021/05/10 04:41:40;;;;;;;17.60;2.77;;;;;;;;;;5072129;28;20206;-74
2021/05/10 04:44:07;;;;;;;15.47;2.60;;;;;;;;;;5062925;28;20758;-74
2021/05/10 04:46:34;;;;;;;17.37;2.37;;;;;;;;;;5068675;28;20218;-74
2021/05/10 04:49:01;;;;;;;15.67;2.80;;;;;;;;;;5068314;28;20327;-73
2021/05/10 04:51:28;;;;;;;13.97;2.57;;;;;;;;;;5076319;28;20622;-74
2021/05/10 04:53:54;;;;;;;16.20;1.87;;;;;;;;;;5074434;28;20199;-74
2021/05/10 04:56:21;;;;;;;13.67;2.20;;;;;;;;;;5091908;28;20209;-74
2021/05/10 04:58:48;;;;;;;15.33;2.50;;;;;;;;;;5075351;28;20242;-73
2021/05/10 05:01:15;;;;;;;14.97;2.63;;;;;;;;;;5057405;28;20267;-74
2021/05/10 05:03:41;;;;;;;16.53;2.57;;;;;;;;;;5052987;28;20663;-73
2021/05/10 05:06:09;;;;;;;14.10;2.20;;;;;;;;;;5071957;28;20294;-74
2021/05/10 05:08:36;;;;;;;13.87;2.60;;;;;;;;;;5073164;28;20559;-74
2021/05/10 05:11:02;;;;;;;10.97;2.20;;;;;;;;;;5055296;28;20201;-75
2021/05/10 05:13:30;;;;;;;12.37;2.13;;;;;;;;;;5055440;28;20690;-74
2021/05/10 05:15:57;;;;;;;12.50;2.30;;;;;;;;;;5055792;28;20249;-74
2021/05/10 05:18:24;;;;;;;12.47;2.13;;;;;;;;;;5050771;28;20200;-74
2021/05/10 05:20:51;;;;;;;13.37;2.30;;;;;;;;;;5051505;28;20199;-73
2021/05/10 05:23:19;;;;;;;19.93;2.80;;;;;;;;;;5070745;28;20587;-74
2021/05/10 05:25:46;;;;;;;13.77;2.43;;;;;;;;;;5068547;28;20211;-74
2021/05/10 05:28:12;;;;;;;16.37;2.67;;;;;;;;;;5052683;28;20251;-73
2021/05/10 05:30:39;;;;;;;14.63;2.37;;;;;;;;;;5070632;28;20286;-74
2021/05/10 05:33:06;;;;;;;14.63;2.30;;;;;;;;;;5071177;28;20551;-74
2021/05/10 05:35:32;;;;;;;11.47;2.10;;;;;;;;;;5074615;28;20263;-73
2021/05/10 05:37:59;;;;;;;14.97;2.43;;;;;;;;;;5069047;28;20288;-73
2021/05/10 05:40:27;;;;;;;14.00;2.80;;;;;;;;;;5067736;28;20221;-73
2021/05/10 05:42:54;;;;;;;12.97;2.23;;;;;;;;;;5070103;28;20698;-73
2021/05/10 05:45:20;;;;;;;15.47;2.70;;;;;;;;;;5072757;28;20195;-73
2021/05/10 05:47:47;;;;;;;13.73;2.30;;;;;;;;;;5066997;28;20218;-73
2021/05/10 05:50:14;;;;;;;12.13;2.57;;;;;;;;;;5068372;28;20744;-74
2021/05/10 05:52:40;;;;;;;12.57;2.17;;;;;;;;;;5073916;28;20677;-74
2021/05/10 05:55:07;;;;;;;10.30;2.43;;;;;;;;;;5076655;28;20293;-73
2021/05/10 05:57:35;;;;;;;10.60;2.30;;;;;;;;;;5068516;28;20305;-74
2021/05/10 06:00:02;;;;;;;16.87;2.73;;;;;;;;;;5068886;28;20254;-74
2021/05/10 06:02:29;;;;;;;12.77;2.50;;;;;;;;;;5049743;28;20203;-74
2021/05/10 06:04:56;;;;;;;10.73;2.07;;;;;;;;;;5066011;28;20218;-73
2021/05/10 06:07:22;;;;;;;10.03;1.87;;;;;;;;;;5049357;28;20286;-73
2021/05/10 06:09:49;;;;;;;9.37;2.07;;;;;;;;;;5054319;28;20205;-73
2021/05/10 06:12:16;;;;;;;12.50;2.37;;;;;;;;;;5060365;28;20611;-73
2021/05/10 06:14:44;;;;;;;11.17;2.03;;;;;;;;;;5068794;28;20218;-73
2021/05/10 06:17:10;;;;;;;12.40;2.40;;;;;;;;;;5063563;28;20291;-73
2021/05/10 06:19:37;;;;;;;11.17;2.83;;;;;;;;;;5070994;28;20281;-73
2021/05/10 06:22:04;;;;;;;10.83;2.27;;;;;;;;;;5072617;28;20202;-73
2021/05/10 06:24:31;;;;;;;10.10;2.03;;;;;;;;;;5076391;28;20721;-72
2021/05/10 06:26:57;;;;;;;11.67;2.37;;;;;;;;;;5069911;28;20238;-73
2021/05/10 06:29:24;;;;;;;11.67;2.30;;;;;;;;;;5093811;28;20328;-73
2021/05/10 06:31:52;;;;;;;9.30;2.53;;;;;;;;;;5074485;28;20677;-73
2021/05/10 06:34:18;;;;;;;13.83;2.37;;;;;;;;;;5069038;28;20207;-73
2021/05/10 06:36:45;;;;;;;10.87;2.60;;;;;;;;;;5077163;28;20290;-73
2021/05/10 06:39:12;;;;;;;10.70;2.60;;;;;;;;;;5074225;28;20232;-73
2021/05/10 06:41:38;;;;;;;10.38;2.03;;;;;;;;;;5055374;28;20722;-73
2021/05/10 06:44:05;;;;;;;8.52;1.98;;;;;;;;;;5054175;28;20287;-73
2021/05/10 06:46:32;;;;;;;11.13;2.10;;;;;;;;;;5067026;28;20283;-73
2021/05/10 06:48:59;;;;;;;10.68;2.20;;;;;;;;;;5054220;28;20227;-73
2021/05/10 06:51:26;;;;;;;12.02;2.40;;;;;;;;;;5053674;28;20614;-73
2021/05/10 06:53:53;;;;;;;12.23;2.50;;;;;;;;;;5054111;28;20742;-73
2021/05/10 06:56:19;;;;;;;11.57;2.15;;;;;;;;;;5061555;28;20223;-73
2021/05/10 06:58:46;;;;;;;13.02;2.40;;;;;;;;;;5058895;28;20291;-73
2021/05/10 07:01:12;;;;;;;11.32;2.13;;;;;;;;;;5066104;28;20322;-73
2021/05/10 07:03:39;;;;;;;9.07;2.15;;;;;;;;;;5082380;28;20291;-73
2021/05/10 07:06:07;;;;;;;9.70;1.88;;;;;;;;;;5081724;28;20198;-73
2021/05/10 07:08:33;;;;;;;11.13;2.10;;;;;;;;;;5078280;28;20246;-73
2021/05/10 07:11:00;;;;;;;11.98;2.28;;;;;;;;;;5073606;28;20217;-73
2021/05/10 07:13:27;;;;;;;8.45;1.77;;;;;;;;;;5073423;28;20226;-73
2021/05/10 07:15:54;;;;;;;12.50;2.28;;;;;;;;;;5061653;28;20245;-73
2021/05/10 07:18:20;;;;;;;13.23;2.53;;;;;;;;;;5074379;28;20230;-73
2021/05/10 07:20:47;;;;;;;11.10;2.00;;;;;;;;;;5071697;28;20293;-72
2021/05/10 07:23:16;;;;;;;11.10;2.03;;;;;;;;;;5073287;28;20689;-73
2021/05/10 07:25:45;;;;;;;12.47;2.20;;;;;;;;;;5072791;28;20681;-73
2021/05/10 07:28:12;;;;;;;8.70;1.70;;;;;;;;;;5073473;28;20313;-73
2021/05/10 07:30:39;;;;;;;12.33;2.20;;;;;;;;;;5073072;28;20623;-74
2021/05/10 07:33:06;;;;;;;11.77;2.33;;;;;;;;;;5073393;28;20234;-74
2021/05/10 07:35:32;;;;;;;15.57;2.40;;;;;;;;;;5073372;28;20250;-75
2021/05/10 07:37:59;;;;;;;13.77;2.13;;;;;;;;;;5073114;28;20717;-74
2021/05/10 07:40:28;;;;;;;12.67;2.70;;;;;;;;;;5071979;28;20195;-74
2021/05/10 07:42:55;;;;;;;13.33;2.20;;;;;;;;;;5056984;28;20199;-74
2021/05/10 07:45:22;;;;;;;11.30;2.17;;;;;;;;;;5059396;28;20697;-74
2021/05/10 07:47:52;;;;;;;8.50;2.20;;;;;;;;;;5056121;28;20464;-74
2021/05/10 07:50:19;;;;;;;9.67;1.97;;;;;;;;;;5053536;28;20231;-74
2021/05/10 07:52:45;;;;;;;11.17;2.00;;;;;;;;;;5052288;28;20242;-74
2021/05/10 07:55:12;;;;;;;10.20;2.33;;;;;;;;;;5052704;28;20285;-74
2021/05/10 07:57:40;;;;;;;9.43;2.13;;;;;;;;;;5052694;28;20234;-74
2021/05/10 08:00:11;;;;;;;7.57;1.70;;;;;;;;;;5064559;28;20231;-74
2021/05/10 08:02:38;;;;;;;10.27;2.08;;;;;;;;;;5058240;28;20239;-75
2021/05/10 08:05:05;;;;;;;8.95;1.60;;;;;;;;;;5067679;28;20202;-74
2021/05/10 08:07:32;;;;;;;8.73;1.80;;;;;;;;;;5065009;28;20715;-74
2021/05/10 08:09:59;;;;;;;5.85;1.60;;;;;;;;;;5052129;28;20200;-74
2021/05/10 08:12:26;;;;;;;9.48;1.70;;;;;;;;;;5070754;28;20206;-74
2021/05/10 08:14:53;;;;;;;9.23;1.60;;;;;;;;;;5076813;28;20230;-74
2021/05/10 08:17:21;;;;;;;7.77;1.67;;;;;;;;;;5072445;28;20210;-74
2021/05/10 08:19:48;;;;;;;10.13;1.53;;;;;;;;;;5082999;28;20205;-74
2021/05/10 08:22:15;;;;;;;9.37;1.70;;;;;;;;;;5089952;28;20205;-74
2021/05/10 08:24:41;;;;;;;10.17;1.60;;;;;;;;;;5069649;28;20285;-74
2021/05/10 08:27:08;;;;;;;10.00;1.70;;;;;;;;;;5057261;28;20306;-74
2021/05/10 08:29:35;;;;;;;9.90;1.83;;;;;;;;;;5066930;28;20313;-74
2021/05/10 08:32:03;;;;;;;12.10;2.17;;;;;;;;;;5064048;28;20290;-75
2021/05/10 08:34:29;;;;;;;8.10;1.60;;;;;;;;;;5092470;28;20202;-74
2021/05/10 08:36:57;;;;;;;10.43;1.87;;;;;;;;;;5073169;28;20203;-74
2021/05/10 08:39:23;;;;;;;10.10;2.10;;;;;;;;;;5071272;28;20225;-74
2021/05/10 08:41:50;;;;;;;6.77;1.50;;;;;;;;;;5079577;28;20583;-74
2021/05/10 08:44:19;;;;;;;9.25;2.05;;;;;;;;;;5091542;28;20264;-74
2021/05/10 08:46:45;;;;;;;10.80;2.28;;;;;;;;;;5051487;28;20252;-74
2021/05/10 08:49:18;;;;;;;9.88;2.17;;;;;;;;;;5062714;28;20223;-74
2021/05/10 08:51:44;;;;;;;7.85;1.65;;;;;;;;;;5071271;28;20570;-74
2021/05/10 08:54:18;;;;;;;9.10;1.90;;;;;;;;;;5061323;28;20203;-74
2021/05/10 08:56:45;;;;;;;6.78;1.65;;;;;;;;;;5051645;28;20203;-74
2021/05/10 08:59:12;;;;;;;7.32;1.73;;;;;;;;;;5051631;28;20199;-74
2021/05/10 09:01:49;;;;;;;8.27;1.67;;;;;;;;;;5051470;28;20330;-74
2021/05/10 09:04:17;;;;;;;4.13;1.25;;;;;;;;;;5067600;28;20286;-74
2021/05/10 09:06:44;;;;;;;8.25;1.58;;;;;;;;;;5092088;28;20281;-74
2021/05/10 09:09:11;;;;;;;6.72;1.55;;;;;;;;;;5091352;28;20228;-74
2021/05/10 09:11:52;;;;;;;6.95;1.42;;;;;;;;;;5073268;28;20210;-74
2021/05/10 09:14:30;;;;;;;7.03;1.65;;;;;;;;;;5070923;28;20626;-75
2021/05/10 09:16:56;;;;;;;4.97;1.38;;;;;;;;;;5071441;28;20289;-75
2021/05/10 09:19:38;;;;;;;3.03;1.23;;;;;;;;;;5063697;28;20770;-75
2021/05/10 09:22:05;;;;;;;6.00;1.30;;;;;;;;;;5056780;28;20298;-75
2021/05/10 09:24:32;;;;;;;5.68;1.10;;;;;;;;;;5059699;28;20678;-74
2021/05/10 09:26:59;;;;;;;5.18;1.35;;;;;;;;;;5058605;28;20235;-74
2021/05/10 09:29:26;;;;;;;5.40;1.23;;;;;;;;;;5051454;28;20215;-75
2021/05/10 09:31:53;;;;;;;6.82;1.67;;;;;;;;;;5056277;28;20286;-75
2021/05/10 09:34:21;;;;;;;5.47;1.20;;;;;;;;;;5071300;28;20272;-74
2021/05/10 09:36:48;;;;;;;4.88;1.40;;;;;;;;;;5071079;28;20582;-75
2021/05/10 09:39:29;;;;;;;5.93;1.45;;;;;;;;;;5070973;28;20707;-75
2021/05/10 09:41:59;;;;;;;4.82;1.20;;;;;;;;;;5064312;28;20796;-75
2021/05/10 09:44:39;;;;;;;6.32;1.50;;;;;;;;;;5062421;28;20283;-74
2021/05/10 09:47:06;;;;;;;7.20;1.75;;;;;;;;;;5050705;28;20231;-75
2021/05/10 09:49:43;;;;;;;7.50;1.60;;;;;;;;;;5063909;28;20337;-75
2021/05/10 09:52:19;;;;;;;8.20;1.70;;;;;;;;;;5051451;28;20203;-75
2021/05/10 09:54:54;;;;;;;6.72;1.48;;;;;;;;;;5080393;28;20202;-74
2021/05/10 09:57:21;;;;;;;6.88;1.50;;;;;;;;;;5091364;28;20198;-74
2021/05/10 10:00:02;;;;;;;5.30;1.60;;;;;;;;;;5077698;28;20261;-74
2021/05/10 10:02:35;;;;;;;7.05;1.60;;;;;;;;;;5083742;28;20211;-74
2021/05/10 10:05:02;;;;;;;8.45;1.73;;;;;;;;;;5054348;28;20776;-75
2021/05/10 10:07:29;;;;;;;6.10;1.73;;;;;;;;;;5075938;28;20297;-74
2021/05/10 10:09:57;;;;;;;7.78;1.77;;;;;;;;;;5093410;28;20703;-75
2021/05/10 10:12:24;;;;;;;5.43;1.60;;;;;;;;;;5084696;28;20296;-75
2021/05/10 10:14:51;;;;;;;5.65;1.67;;;;;;;;;;5056463;28;20238;-74
2021/05/10 10:17:18;;;;;;;7.53;1.52;;;;;;;;;;5072384;28;20242;-74
2021/05/10 10:19:45;;;;;;;6.25;1.48;;;;;;;;;;5073877;28;20434;-74
2021/05/10 10:22:12;;;;;;;4.05;1.40;;;;;;;;;;5063356;28;20279;-74
2021/05/10 10:24:39;;;;;;;4.78;1.58;;;;;;;;;;5065034;28;20602;-75
2021/05/10 10:27:10;;;;;;;5.82;1.42;;;;;;;;;;5074249;28;20741;-74
2021/05/10 10:29:37;;;;;;;4.85;1.55;;;;;;;;;;5064151;28;20271;-75
2021/05/10 10:32:04;;;;;;;4.55;1.20;;;;;;;;;;5074484;28;20231;-74
2021/05/10 10:34:35;;;;;;;8.38;1.52;;;;;;;;;;5066026;28;20291;-74
2021/05/10 10:37:02;;;;;;;7.40;1.35;;;;;;;;;;5072642;28;20289;-74
2021/05/10 10:39:32;;;;;;;6.97;1.85;;;;;;;;;;5092856;28;20290;-74
2021/05/10 10:42:01;;;;;;;5.35;1.38;;;;;;;;;;5084907;28;20358;-74
2021/05/10 10:44:31;;;;;;;5.82;1.40;;;;;;;;;;5076964;28;20719;-74
2021/05/10 10:46:58;;;;;;;6.65;1.40;;;;;;;;;;5079648;28;20204;-73
2021/05/10 10:49:29;;;;;;;6.05;1.88;;;;;;;;;;5056235;28;20243;-74
2021/05/10 10:51:56;;;;;;;7.03;1.60;;;;;;;;;;5055108;28;20333;-74
2021/05/10 10:54:24;;;;;;;4.45;1.27;;;;;;;;;;5070621;28;20200;-74
2021/05/10 10:56:53;;;;;;;9.32;1.23;;;;;;;;;;5072721;28;20290;-74
2021/05/10 10:59:23;;;;;;;4.90;1.23;;;;;;;;;;5094227;28;20331;-74
2021/05/10 11:01:51;;;;;;;4.43;1.60;;;;;;;;;;5081976;28;20294;-74
2021/05/10 11:04:24;;;;;;;5.22;1.30;;;;;;;;;;5073368;28;20539;-74
2021/05/10 11:06:51;;;;;;;7.28;1.60;;;;;;;;;;5066419;28;20203;-74
2021/05/10 11:09:38;;;;;;;7.90;1.85;;;;;;;;;;5066091;28;20207;-74
2021/05/10 11:12:05;;;;;;;7.03;1.40;;;;;;;;;;5072119;28;20282;-74
2021/05/10 11:14:42;;;;;;;5.78;1.33;;;;;;;;;;5070660;28;20514;-74
2021/05/10 11:17:10;;;;;;;5.40;1.23;;;;;;;;;;5070344;28;20203;-74
2021/05/10 11:19:37;;;;;;;5.60;1.42;;;;;;;;;;5071144;28;20314;-74
2021/05/10 11:22:24;;;;;;;6.95;1.30;;;;;;;;;;5071855;28;20199;-74
2021/05/10 11:24:51;;;;;;;4.10;1.13;;;;;;;;;;5069872;28;20278;-74
2021/05/10 11:27:25;;;;;;;5.57;1.20;;;;;;;;;;5072811;28;20311;-74
2021/05/10 11:29:52;;;;;;;4.68;1.20;;;;;;;;;;5072717;28;20693;-74
2021/05/10 11:32:31;;;;;;;5.47;1.30;;;;;;;;;;5061769;28;20235;-74
2021/05/10 11:35:22;;;;;;;6.60;1.50;;;;;;;;;;5063655;28;20290;-74
2021/05/10 11:37:58;;;;;;;6.20;1.23;;;;;;;;;;5072806;28;20227;-74
2021/05/10 11:40:25;;;;;;;13.07;1.67;;;;;;;;;;5073798;28;20254;-73
2021/05/10 11:42:52;;;;;;;5.65;1.23;;;;;;;;;;5093640;28;20229;-73
2021/05/10 11:45:19;;;;;;;4.60;1.43;;;;;;;;;;5093054;28;20206;-74
2021/05/10 11:47:50;;;;;;;6.00;1.47;;;;;;;;;;5065068;28;20231;-74
2021/05/10 11:50:17;;;;;;;6.10;1.30;;;;;;;;;;5064268;28;20677;-74
2021/05/10 11:52:45;;;;;;;7.68;1.30;;;;;;;;;;5064612;28;20199;-74
2021/05/10 11:55:13;;;;;;;4.93;1.40;;;;;;;;;;5056266;28;20215;-74
2021/05/10 11:57:42;;;;;;;5.55;1.40;;;;;;;;;;5075220;28;20256;-74
2021/05/10 12:00:13;;;;;;;4.65;1.40;;;;;;;;;;5072753;28;20238;-74
2021/05/10 12:02:41;;;;;;;5.75;1.30;;;;;;;;;;5071818;28;20226;-73
2021/05/10 12:05:09;;;;;;;5.07;1.50;;;;;;;;;;5060478;28;20277;-74
2021/05/10 12:07:37;;;;;;;4.90;1.20;;;;;;;;;;5071003;28;20287;-73
2021/05/10 12:10:04;;;;;;;5.75;1.40;;;;;;;;;;5069095;28;20293;-73
2021/05/10 12:12:32;;;;;;;6.15;1.23;;;;;;;;;;5052780;28;20196;-74
2021/05/10 12:15:08;;;;;;;6.57;1.45;;;;;;;;;;5052328;28;20203;-74
2021/05/10 12:17:35;;;;;;;4.72;1.50;;;;;;;;;;5051754;28;20557;-74
2021/05/10 12:20:03;;;;;;;8.98;1.77;;;;;;;;;;5065418;28;20222;-73
2021/05/10 12:22:34;;;;;;;4.38;1.30;;;;;;;;;;5066668;28;20200;-74
2021/05/10 12:25:03;;;;;;;6.65;1.38;;;;;;;;;;5063290;28;20204;-73
2021/05/10 12:27:36;;;;;;;4.63;1.50;;;;;;;;;;5057829;28;20305;-73
2021/05/10 12:30:05;;;;;;;7.20;1.40;;;;;;;;;;5064385;28;20222;-73
2021/05/10 12:32:31;;;;;;;4.65;1.25;;;;;;;;;;5062750;28;20648;-73
2021/05/10 12:34:58;;;;;;;6.18;1.67;;;;;;;;;;5070796;28;20202;-73
2021/05/10 12:37:25;;;;;;;6.22;1.67;;;;;;;;;;5060224;28;20650;-73
2021/05/10 12:40:04;;;;;;;5.93;1.23;;;;;;;;;;5072031;28;20241;-73
2021/05/10 12:42:31;;;;;;;5.35;1.20;;;;;;;;;;5055733;28;20220;-73
2021/05/10 12:44:58;;;;;;;7.30;1.58;;;;;;;;;;5053464;28;20713;-73
2021/05/10 12:47:37;;;;;;;7.38;1.77;;;;;;;;;;5067185;28;20594;-73
2021/05/10 12:50:04;;;;;;;4.95;1.35;;;;;;;;;;5051571;28;20247;-73
2021/05/10 12:52:45;;;;;;;7.00;1.67;;;;;;;;;;5056734;28;20283;-75
2021/05/10 12:55:17;;;;;;;8.55;1.70;;;;;;;;;;5065392;28;20280;-72
2021/05/10 12:57:44;;;;;;;6.57;1.60;;;;;;;;;;5068002;28;20670;-75
2021/05/10 13:00:26;;;;;;;5.03;1.15;;;;;;;;;;5058887;28;20693;-75
2021/05/10 13:02:52;;;;;;;4.32;1.27;;;;;;;;;;5056515;28;20575;-74
2021/05/10 13:05:36;;;;;;;7.00;1.85;;;;;;;;;;5066246;28;20206;-76
2021/05/10 13:08:03;;;;;;;6.35;1.27;;;;;;;;;;5055283;28;20713;-74
2021/05/10 13:10:31;;;;;;;5.18;1.10;;;;;;;;;;5060061;28;20291;-75
2021/05/10 13:12:58;;;;;;;5.70;1.23;;;;;;;;;;5058151;28;20916;-76
2021/05/10 13:15:26;;;;;;;6.38;1.02;;;;;;;;;;5066873;28;20222;-76
2021/05/10 13:18:10;;;;;;;4.32;1.10;;;;;;;;;;5061749;28;20278;-76
2021/05/10 13:31:46;;;;;;;3.55;1.25;;;;;;;;;;5000935;28;20359;-76
2021/05/10 13:34:23;;;;;;;6.32;1.33;;;;;;;;;;5008040;28;20615;-76
2021/05/10 13:36:52;;;;;;;4.97;1.23;;;;;;;;;;5007709;28;20216;-76
2021/05/10 13:39:20;;;;;;;6.75;1.08;;;;;;;;;;5004068;28;20193;-76
2021/05/10 13:41:50;;;;;;;5.00;0.85;;;;;;;;;;5008801;28;20257;-76
2021/05/10 13:44:17;;;;;;;3.30;0.93;;;;;;;;;;5007655;28;20251;-76
2021/05/10 13:46:47;;;;;;;3.58;0.70;;;;;;;;;;5008981;28;20688;-76
2021/05/10 13:49:14;;;;;;;5.35;1.23;;;;;;;;;;5008561;28;20244;-76
2021/05/10 13:51:43;;;;;;;3.28;1.02;;;;;;;;;;5008791;28;20423;-76
2021/05/10 13:54:10;;;;;;;6.18;1.50;;;;;;;;;;5009234;28;20710;-76
2021/05/10 13:56:37;;;;;;;4.25;1.10;;;;;;;;;;5008695;28;20652;-76
2021/05/10 13:59:05;;;;;;;4.13;1.13;;;;;;;;;;5008904;28;20201;-76
2021/05/10 14:01:32;;;;;;;5.63;1.13;;;;;;;;;;5054273;28;20311;-76
2021/05/10 14:03:59;;;;;;;5.47;1.20;;;;;;;;;;5050844;28;20337;-76
2021/05/10 14:06:26;;;;;;;5.68;1.20;;;;;;;;;;5063037;28;20718;-76
2021/05/10 14:08:53;;;;;;;3.05;1.23;;;;;;;;;;5072440;28;20305;-76
2021/05/10 14:11:20;;;;;;;4.45;1.00;;;;;;;;;;5067627;28;20632;-76
2021/05/10 14:13:46;;;;;;;3.72;1.10;;;;;;;;;;5090913;28;20854;-76
2021/05/10 14:16:14;;;;;;;4.43;1.50;;;;;;;;;;5089164;28;20277;-76
2021/05/10 14:18:43;;;;;;;5.70;1.23;;;;;;;;;;5051217;28;20206;-77
2021/05/10 14:23:55;;;;;;;5.72;1.20;;;;;;;;;;5069347;28;21014;-76
2021/05/10 14:26:21;;;;;;;4.60;0.80;;;;;;;;;;5069700;28;20326;-76
2021/05/10 14:28:48;;;;;;;6.67;1.30;;;;;;;;;;5064854;28;20227;-75
2021/05/10 14:31:16;;;;;;;4.73;0.90;;;;;;;;;;5069134;28;20305;-75
2021/05/10 14:33:43;;;;;;;2.63;0.90;;;;;;;;;;5068616;28;20686;-75
2021/05/10 14:36:10;;;;;;;2.90;0.67;;;;;;;;;;5070599;28;20203;-75
2021/05/10 14:38:37;;;;;;;4.47;0.80;;;;;;;;;;5062859;28;20307;-75
2021/05/10 14:41:04;;;;;;;4.20;0.97;;;;;;;;;;5056727;28;20351;-76
2021/05/10 14:43:31;;;;;;;7.93;1.10;;;;;;;;;;5066465;28;20698;-76
2021/05/10 14:45:59;;;;;;;4.90;1.10;;;;;;;;;;5069793;28;20294;-76
2021/05/10 14:48:27;;;;;;;5.20;1.10;;;;;;;;;;5070436;28;20274;-76
2021/05/10 14:50:53;;;;;;;5.23;0.90;;;;;;;;;;5071352;28;20203;-76
2021/05/10 14:53:20;;;;;;;4.63;1.33;;;;;;;;;;5075214;28;20576;-76
2021/05/10 14:55:47;;;;;;;8.10;1.50;;;;;;;;;;5073602;28;20336;-76
2021/05/10 14:58:13;;;;;;;5.33;1.17;;;;;;;;;;5073407;28;20260;-76
2021/05/10 15:00:40;;;;;;;4.87;1.50;;;;;;;;;;5073382;28;20230;-76
2021/05/10 15:03:07;;;;;;;3.53;1.03;;;;;;;;;;5073244;28;20203;-76